Time;durP1;ratioP1;P1;durP2;ratioP2;P2;SDS_P1;SDS_P2;PMS_P1;PMS_P2;Temp;Humidity;BMP_temperature;BMP_pressure;BME280_temperature;BME280_humidity;BME280_pressure;Samples;Min_cycle;Max_cycle;Signal;HPM_P1;HPM_P2
2022/05/22 00:02:13;;;;;;;;;;;;;;;;;;5065903;28;19913;-67
2022/05/22 00:04:59;;;;;;;;;;;;;;;;;;5052833;28;20000;-65
2022/05/22 00:07:44;;;;;;;;;;;;;;;;;;5051916;28;20066;-75
2022/05/22 00:10:29;;;;;;;;;;;;;;;;;;5051283;28;20019;-65
2022/05/22 00:13:15;;;;;;;;;;;;;;;;;;5052280;28;19909;-66
2022/05/22 00:19:05;;;;;;;;;;;;;;;;;;5049678;28;19927;-66
2022/05/22 00:21:50;;;;;;;;;;;;;;;;;;5061386;28;19916;-66
2022/05/22 00:24:36;;;;;;;;;;;;;;;;;;5047014;28;20257;-66
2022/05/22 00:27:22;;;;;;;;;;;;;;;;;;5065077;28;20272;-73
2022/05/22 00:30:07;;;;;;;;;;;;;;;;;;5051355;28;19909;-74
2022/05/22 00:32:53;;;;;;;;;;;;;;;;;;5053816;28;19939;-74
2022/05/22 00:35:38;;;;;;;;;;;;;;;;;;5062681;28;19915;-75
2022/05/22 00:38:24;;;;;;;;;;;;;;;;;;5061782;28;19932;-75
2022/05/22 00:41:09;;;;;;;;;;;;;;;;;;5054045;28;19991;-74
2022/05/22 00:43:55;;;;;;;;;;;;;;;;;;5053954;28;19921;-73
2022/05/22 00:46:40;;;;;;;;;;;;;;;;;;5055062;28;20401;-64
2022/05/22 00:49:27;;;;;;;;;;;;;;;;;;5049928;28;20360;-63
2022/05/22 00:52:12;;;;;;;;;;;;;;;;;;5064829;28;20391;-64
2022/05/22 00:54:58;;;;;;;;;;;;;;;;;;5053874;28;19982;-65
2022/05/22 00:57:43;;;;;;;;;;;;;;;;;;5042398;28;19925;-65
2022/05/22 01:00:29;;;;;;;;;;;;;;;;;;5051178;28;19909;-65
2022/05/22 01:03:26;;;;;;;;;;;;;;;;;;5056635;28;19913;-65
2022/05/22 01:06:12;;;;;;;;;;;;;;;;;;5048903;28;19913;-67
2022/05/22 01:08:58;;;;;;;;;;;;;;;;;;5039725;28;20031;-68
2022/05/22 01:11:43;;;;;;;;;;;;;;;;;;5054653;28;20402;-69
2022/05/22 01:14:29;;;;;;;;;;;;;;;;;;5052950;28;19920;-69
2022/05/22 01:17:14;;;;;;;;;;;;;;;;;;5053715;28;19917;-70
2022/05/22 01:20:00;;;;;;;;;;;;;;;;;;5067340;28;19921;-73
2022/05/22 01:22:45;;;;;;;;;;;;;;;;;;5044432;28;20348;-66
2022/05/22 01:25:31;;;;;;;;;;;;;;;;;;5056467;28;19913;-66
2022/05/22 01:28:17;;;;;;;;;;;;;;;;;;5046665;28;20296;-67
2022/05/22 01:31:02;;;;;;;;;;;;;;;;;;5046164;28;19917;-67
2022/05/22 01:33:47;;;;;;;;;;;;;;;;;;5049117;28;19908;-66
2022/05/22 01:36:33;;;;;;;;;;;;;;;;;;5043760;28;19916;-64
2022/05/22 01:39:18;;;;;;;;;;;;;;;;;;5052523;28;20287;-62
2022/05/22 01:42:04;;;;;;;;;;;;;;;;;;5065317;28;19912;-74
2022/05/22 01:44:49;;;;;;;;;;;;;;;;;;5044575;28;19920;-73
2022/05/22 01:47:35;;;;;;;;;;;;;;;;;;5052143;28;20502;-72
2022/05/22 01:50:21;;;;;;;;;;;;;;;;;;5051803;28;19909;-72
2022/05/22 01:53:07;;;;;;;;;;;;;;;;;;5066590;28;19962;-72
2022/05/22 01:55:52;;;;;;;;;;;;;;;;;;5048155;28;20455;-73
2022/05/22 01:58:37;;;;;;;;;;;;;;;;;;5053617;28;20103;-68
2022/05/22 02:01:23;;;;;;;;;;;;;;;;;;5038469;28;19909;-68
2022/05/22 02:04:08;;;;;;;;;;;;;;;;;;5052276;28;19923;-68
2022/05/22 02:09:58;;;;;;;;;;;;;;;;;;5053166;28;19916;-68
2022/05/22 02:12:44;;;;;;;;;;;;;;;;;;5052583;28;19917;-69
2022/05/22 02:15:29;;;;;;;;;;;;;;;;;;5040740;28;20349;-69
2022/05/22 02:18:15;;;;;;;;;;;;;;;;;;5040891;28;19932;-61
2022/05/22 02:21:00;;;;;;;;;;;;;;;;;;5063132;28;19909;-62
2022/05/22 02:23:46;;;;;;;;;;;;;;;;;;5038051;28;19963;-63
2022/05/22 02:26:31;;;;;;;;;;;;;;;;;;5059827;28;19948;-63
2022/05/22 02:29:17;;;;;;;;;;;;;;;;;;5073286;28;19947;-63
2022/05/22 02:32:02;;;;;;;;;;;;;;;;;;5058936;28;19968;-63
2022/05/22 02:34:48;;;;;;;;;;;;;;;;;;5061557;28;19916;-66
2022/05/22 02:37:33;;;;;;;;;;;;;;;;;;5039523;28;19916;-69
2022/05/22 02:40:19;;;;;;;;;;;;;;;;;;5065835;28;19932;-70
2022/05/22 02:43:04;;;;;;;;;;;;;;;;;;5051222;28;20429;-71
2022/05/22 02:45:51;;;;;;;;;;;;;;;;;;5055850;28;19954;-71
2022/05/22 02:48:36;;;;;;;;;;;;;;;;;;5058448;28;19909;-69
2022/05/22 02:51:21;;;;;;;;;;;;;;;;;;5051630;28;19924;-60
2022/05/22 02:54:07;;;;;;;;;;;;;;;;;;5045382;28;20280;-68
2022/05/22 02:56:52;;;;;;;;;;;;;;;;;;5053520;28;20428;-72
2022/05/22 02:59:38;;;;;;;;;;;;;;;;;;5052073;28;19916;-72
2022/05/22 03:02:23;;;;;;;;;;;;;;;;;;5063443;28;19908;-73
2022/05/22 03:05:09;;;;;;;;;;;;;;;;;;5039339;28;19912;-72
2022/05/22 03:07:54;;;;;;;;;;;;;;;;;;5052158;28;19967;-73
2022/05/22 03:10:40;;;;;;;;;;;;;;;;;;5052801;28;20015;-63
2022/05/22 03:13:25;;;;;;;;;;;;;;;;;;5055785;28;19995;-65
2022/05/22 03:16:11;;;;;;;;;;;;;;;;;;5059369;28;19917;-64
2022/05/22 03:18:56;;;;;;;;;;;;;;;;;;5040138;28;20481;-64
2022/05/22 03:21:42;;;;;;;;;;;;;;;;;;5067172;28;19955;-63
2022/05/22 03:24:27;;;;;;;;;;;;;;;;;;5058348;28;19964;-64
2022/05/22 03:27:12;;;;;;;;;;;;;;;;;;5068325;28;20401;-64
2022/05/22 03:29:58;;;;;;;;;;;;;;;;;;5049834;28;19913;-69
2022/05/22 03:32:43;;;;;;;;;;;;;;;;;;5041833;28;19928;-65
2022/05/22 03:35:29;;;;;;;;;;;;;;;;;;5052170;28;19972;-65
2022/05/22 03:38:15;;;;;;;;;;;;;;;;;;5063365;28;19959;-64
2022/05/22 03:41:00;;;;;;;;;;;;;;;;;;5047292;28;19909;-66
2022/05/22 03:43:45;;;;;;;;;;;;;;;;;;5068485;28;20873;-65
2022/05/22 03:46:31;;;;;;;;;;;;;;;;;;5051421;28;19909;-66
2022/05/22 03:49:16;;;;;;;;;;;;;;;;;;5049271;28;19913;-60
2022/05/22 03:52:02;;;;;;;;;;;;;;;;;;5041950;28;19917;-64
2022/05/22 03:54:47;;;;;;;;;;;;;;;;;;5052513;28;20333;-66
2022/05/22 03:57:33;;;;;;;;;;;;;;;;;;5051503;28;19948;-66
2022/05/22 04:00:18;;;;;;;;;;;;;;;;;;5055496;28;19913;-66
2022/05/22 04:03:04;;;;;;;;;;;;;;;;;;5049490;28;19913;-65
2022/05/22 04:05:49;;;;;;;;;;;;;;;;;;5051945;28;19909;-67
2022/05/22 04:08:34;;;;;;;;;;;;;;;;;;5055415;28;20382;-62
2022/05/22 04:11:20;;;;;;;;;;;;;;;;;;5054794;28;19921;-62
2022/05/22 04:14:06;;;;;;;;;;;;;;;;;;5055191;28;19913;-61
2022/05/22 04:16:51;;;;;;;;;;;;;;;;;;5054883;28;19912;-62
2022/05/22 04:19:38;;;;;;;;;;;;;;;;;;5055458;28;20328;-62
2022/05/22 04:22:23;;;;;;;;;;;;;;;;;;5055616;28;19912;-61
2022/05/22 04:25:12;;;;;;;;;;;;;;;;;;5054554;28;19993;-60
2022/05/22 04:27:57;;;;;;;;;;;;;;;;;;5055481;28;19909;-73
2022/05/22 04:30:43;;;;;;;;;;;;;;;;;;5047346;28;19925;-71
2022/05/22 04:33:28;;;;;;;;;;;;;;;;;;5057763;28;20271;-73
2022/05/22 04:36:14;;;;;;;;;;;;;;;;;;5045479;28;20371;-72
2022/05/22 04:38:59;;;;;;;;;;;;;;;;;;5053064;28;19956;-72
2022/05/22 04:41:45;;;;;;;;;;;;;;;;;;5054186;28;19923;-62
2022/05/22 04:44:30;;;;;;;;;;;;;;;;;;5034326;28;20018;-73
2022/05/22 04:47:15;;;;;;;;;;;;;;;;;;5038915;28;20276;-62
2022/05/22 04:50:01;;;;;;;;;;;;;;;;;;5053487;28;19962;-61
2022/05/22 04:52:46;;;;;;;;;;;;;;;;;;5054935;28;20431;-60
2022/05/22 04:55:32;;;;;;;;;;;;;;;;;;5055147;28;19974;-62
2022/05/22 04:58:17;;;;;;;;;;;;;;;;;;5050123;28;20427;-62
2022/05/22 05:01:03;;;;;;;;;;;;;;;;;;5048396;28;19984;-66
2022/05/22 05:03:49;;;;;;;;;;;;;;;;;;5054365;28;19909;-73
2022/05/22 05:06:34;;;;;;;;;;;;;;;;;;5050766;28;19971;-72
2022/05/22 05:09:21;;;;;;;;;;;;;;;;;;5049738;28;19952;-72
2022/05/22 05:12:07;;;;;;;;;;;;;;;;;;5059021;28;20038;-73
2022/05/22 05:14:52;;;;;;;;;;;;;;;;;;5053586;28;20280;-74
2022/05/22 05:17:37;;;;;;;;;;;;;;;;;;5065168;28;19987;-73
2022/05/22 05:20:23;;;;;;;;;;;;;;;;;;5042054;28;19991;-69
2022/05/22 05:23:08;;;;;;;;;;;;;;;;;;5053234;28;20391;-73
2022/05/22 05:25:54;;;;;;;;;;;;;;;;;;5034944;28;20011;-73
2022/05/22 05:28:39;;;;;;;;;;;;;;;;;;5048653;28;19909;-73
2022/05/22 05:31:25;;;;;;;;;;;;;;;;;;5047228;28;19921;-73
2022/05/22 05:34:10;;;;;;;;;;;;;;;;;;5047716;28;19908;-74
2022/05/22 05:36:56;;;;;;;;;;;;;;;;;;5058924;28;19991;-74
2022/05/22 05:39:41;;;;;;;;;;;;;;;;;;5062758;28;19908;-74
2022/05/22 05:42:27;;;;;;;;;;;;;;;;;;5049601;28;20287;-61
2022/05/22 05:45:12;;;;;;;;;;;;;;;;;;5066284;28;19909;-61
2022/05/22 05:47:58;;;;;;;;;;;;;;;;;;5046166;28;20422;-61
2022/05/22 05:50:43;;;;;;;;;;;;;;;;;;5048132;28;20330;-63
2022/05/22 05:53:29;;;;;;;;;;;;;;;;;;5053291;28;20358;-63
2022/05/22 05:56:14;;;;;;;;;;;;;;;;;;5053367;28;19958;-67
2022/05/22 05:59:00;;;;;;;;;;;;;;;;;;5051026;28;19914;-73
2022/05/22 06:01:45;;;;;;;;;;;;;;;;;;5066205;28;20356;-70
2022/05/22 06:04:30;;;;;;;;;;;;;;;;;;5052916;28;19915;-73
2022/05/22 06:07:16;;;;;;;;;;;;;;;;;;5053519;28;19909;-71
2022/05/22 06:10:01;;;;;;;;;;;;;;;;;;5043743;28;19919;-71
2022/05/22 06:12:47;;;;;;;;;;;;;;;;;;5051188;28;20284;-71
2022/05/22 06:15:32;;;;;;;;;;;;;;;;;;5040369;28;19962;-73
2022/05/22 06:18:18;;;;;;;;;;;;;;;;;;5051369;28;20003;-68
2022/05/22 06:21:03;;;;;;;;;;;;;;;;;;5053617;28;19988;-66
2022/05/22 06:23:49;;;;;;;;;;;;;;;;;;5047369;28;20392;-67
2022/05/22 06:26:34;;;;;;;;;;;;;;;;;;5046457;28;19975;-66
2022/05/22 06:29:20;;;;;;;;;;;;;;;;;;5040844;28;19913;-65
2022/05/22 06:32:05;;;;;;;;;;;;;;;;;;5047691;28;19921;-66
2022/05/22 06:34:50;;;;;;;;;;;;;;;;;;5046687;28;19999;-65
2022/05/22 06:37:36;;;;;;;;;;;;;;;;;;5052964;28;19955;-74
2022/05/22 06:40:21;;;;;;;;;;;;;;;;;;5047407;28;19919;-73
2022/05/22 06:43:07;;;;;;;;;;;;;;;;;;5050787;28;19958;-75
2022/05/22 06:45:52;;;;;;;;;;;;;;;;;;5051161;28;20413;-75
2022/05/22 06:48:38;;;;;;;;;;;;;;;;;;5052748;28;19913;-75
2022/05/22 06:51:23;;;;;;;;;;;;;;;;;;5050943;28;20287;-66
2022/05/22 06:54:09;;;;;;;;;;;;;;;;;;5053653;28;19916;-68
2022/05/22 06:56:54;;;;;;;;;;;;;;;;;;5044028;28;19960;-67
2022/05/22 06:59:39;;;;;;;;;;;;;;;;;;5048566;28;19955;-65
2022/05/22 07:02:27;;;;;;;;;;;;;;;;;;5040372;28;19913;-66
2022/05/22 07:05:12;;;;;;;;;;;;;;;;;;5038475;28;19909;-67
2022/05/22 07:07:58;;;;;;;;;;;;;;;;;;5051341;28;19909;-68
2022/05/22 07:13:48;;;;;;;;;;;;;;;;;;5048810;28;19909;-69
2022/05/22 07:16:33;;;;;;;;;;;;;;;;;;5051324;28;19915;-69
2022/05/22 07:19:19;;;;;;;;;;;;;;;;;;5039613;28;19913;-69
2022/05/22 07:22:04;;;;;;;;;;;;;;;;;;5047514;28;20379;-69
2022/05/22 07:24:50;;;;;;;;;;;;;;;;;;5057975;28;19909;-69
2022/05/22 07:27:35;;;;;;;;;;;;;;;;;;5039644;28;19971;-71
2022/05/22 07:30:21;;;;;;;;;;;;;;;;;;5035949;28;19912;-66
2022/05/22 07:33:06;;;;;;;;;;;;;;;;;;5049849;28;19921;-70
2022/05/22 07:35:51;;;;;;;;;;;;;;;;;;5045814;28;20042;-71
2022/05/22 07:38:37;;;;;;;;;;;;;;;;;;5053996;28;19920;-70
2022/05/22 07:41:22;;;;;;;;;;;;;;;;;;5053240;28;19919;-70
2022/05/22 07:44:08;;;;;;;;;;;;;;;;;;5054407;28;20322;-68
2022/05/22 07:46:53;;;;;;;;;;;;;;;;;;5055046;28;19978;-65
2022/05/22 07:52:43;;;;;;;;;;;;;;;;;;5067675;28;20320;-65
2022/05/22 07:55:31;;;;;;;;;;;;;;;;;;5100110;27;19971;-66
2022/05/22 07:58:16;;;;;;;;;;;;;;;;;;5088926;28;19977;-67
2022/05/22 08:01:01;;;;;;;;;;;;;;;;;;5088443;28;19912;-69
2022/05/22 08:03:47;;;;;;;;;;;;;;;;;;5088921;28;19961;-66
2022/05/22 08:06:33;;;;;;;;;;;;;;;;;;5088311;28;20279;-62
2022/05/22 08:09:19;;;;;;;;;;;;;;;;;;5080399;28;19908;-70
2022/05/22 08:12:04;;;;;;;;;;;;;;;;;;5087320;28;19912;-70
2022/05/22 08:14:50;;;;;;;;;;;;;;;;;;5089000;28;19923;-69
2022/05/22 08:17:38;;;;;;;;;;;;;;;;;;5089740;28;19909;-70
2022/05/22 08:20:24;;;;;;;;;;;;;;;;;;5088169;28;19916;-70
2022/05/22 08:23:09;;;;;;;;;;;;;;;;;;5089309;28;20003;-67
2022/05/22 08:25:55;;;;;;;;;;;;;;;;;;5078285;28;19908;-68
2022/05/22 08:28:41;;;;;;;;;;;;;;;;;;5105037;28;19962;-67
2022/05/22 08:31:26;;;;;;;;;;;;;;;;;;5109437;28;19912;-68
2022/05/22 08:34:13;;;;;;;;;;;;;;;;;;5104307;28;20324;-67
2022/05/22 08:36:58;;;;;;;;;;;;;;;;;;5109352;28;19918;-67
2022/05/22 08:39:44;;;;;;;;;;;;;;;;;;5109584;28;20514;-67
2022/05/22 08:42:29;;;;;;;;;;;;;;;;;;5108138;28;19912;-72
2022/05/22 08:45:15;;;;;;;;;;;;;;;;;;5109491;28;19908;-66
2022/05/22 08:48:00;;;;;;;;;;;;;;;;;;5095721;28;19919;-65
2022/05/22 08:50:46;;;;;;;;;;;;;;;;;;5093208;28;19933;-67
2022/05/22 08:53:31;;;;;;;;;;;;;;;;;;5109106;28;19956;-67
2022/05/22 08:59:21;;;;;;;;;;;;;;;;;;5094572;28;19916;-67
2022/05/22 09:02:08;;;;;;;;;;;;;;;;;;5101783;28;20401;-61
2022/05/22 09:04:54;;;;;;;;;;;;;;;;;;5106138;28;20351;-68
2022/05/22 09:07:39;;;;;;;;;;;;;;;;;;5094736;28;19912;-68
2022/05/22 09:10:24;;;;;;;;;;;;;;;;;;5082492;28;19908;-68
2022/05/22 09:13:10;;;;;;;;;;;;;;;;;;5094307;28;20002;-68
2022/05/22 09:15:55;;;;;;;;;;;;;;;;;;5094089;28;19908;-67
2022/05/22 09:18:41;;;;;;;;;;;;;;;;;;5079471;28;20390;-68
2022/05/22 09:21:26;;;;;;;;;;;;;;;;;;5094587;28;19909;-74
2022/05/22 09:24:12;;;;;;;;;;;;;;;;;;5094277;28;19995;-74
2022/05/22 09:26:57;;;;;;;;;;;;;;;;;;5094098;28;20032;-73
2022/05/22 09:29:43;;;;;;;;;;;;;;;;;;5086434;28;19918;-73
2022/05/22 09:32:29;;;;;;;;;;;;;;;;;;5081136;28;19954;-74
2022/05/22 09:35:14;;;;;;;;;;;;;;;;;;5094688;28;20386;-73
2022/05/22 09:38:00;;;;;;;;;;;;;;;;;;5092260;28;19912;-68
2022/05/22 09:40:46;;;;;;;;;;;;;;;;;;5087614;28;20005;-68
2022/05/22 09:43:31;;;;;;;;;;;;;;;;;;5094839;28;20263;-68
2022/05/22 09:46:16;;;;;;;;;;;;;;;;;;5083513;28;19912;-67
2022/05/22 09:49:02;;;;;;;;;;;;;;;;;;5093514;28;19919;-68
2022/05/22 09:51:48;;;;;;;;;;;;;;;;;;5094811;28;19954;-68
2022/05/22 09:54:34;;;;;;;;;;;;;;;;;;5093965;28;19927;-67
2022/05/22 09:57:19;;;;;;;;;;;;;;;;;;5094193;28;19908;-67
2022/05/22 10:00:05;;;;;;;;;;;;;;;;;;5093728;28;20266;-67
2022/05/22 10:02:50;;;;;;;;;;;;;;;;;;5094024;28;20090;-67
2022/05/22 10:05:36;;;;;;;;;;;;;;;;;;5085183;28;19909;-67
2022/05/22 10:08:21;;;;;;;;;;;;;;;;;;5092132;28;19916;-66
2022/05/22 10:11:07;;;;;;;;;;;;;;;;;;5095923;28;19934;-66
2022/05/22 10:13:52;;;;;;;;;;;;;;;;;;5093796;28;19924;-72
2022/05/22 10:16:38;;;;;;;;;;;;;;;;;;5093029;28;19908;-67
2022/05/22 10:19:23;;;;;;;;;;;;;;;;;;5094123;28;20001;-67
2022/05/22 10:22:09;;;;;;;;;;;;;;;;;;5093617;28;19940;-67
2022/05/22 10:24:55;;;;;;;;;;;;;;;;;;5079060;28;19912;-66
2022/05/22 10:27:40;;;;;;;;;;;;;;;;;;5093023;28;19947;-66
2022/05/22 10:30:26;;;;;;;;;;;;;;;;;;5093457;28;19939;-67
2022/05/22 10:33:11;;;;;;;;;;;;;;;;;;5093820;28;19916;-74
2022/05/22 10:35:57;;;;;;;;;;;;;;;;;;5094749;28;19908;-71
2022/05/22 10:38:42;;;;;;;;;;;;;;;;;;5093471;28;19962;-70
2022/05/22 10:44:32;;;;;;;;;;;;;;;;;;5080601;28;19924;-70
2022/05/22 10:47:17;;;;;;;;;;;;;;;;;;5092441;28;20270;-70
2022/05/22 10:50:03;;;;;;;;;;;;;;;;;;5083354;28;19959;-71
2022/05/22 10:52:48;;;;;;;;;;;;;;;;;;5093391;28;19909;-68
2022/05/22 10:55:34;;;;;;;;;;;;;;;;;;5071610;28;19958;-70
2022/05/22 10:58:19;;;;;;;;;;;;;;;;;;5079745;28;19999;-69
2022/05/22 11:01:05;;;;;;;;;;;;;;;;;;5092420;28;19928;-71
2022/05/22 11:03:50;;;;;;;;;;;;;;;;;;5093030;28;19915;-69
2022/05/22 11:06:36;;;;;;;;;;;;;;;;;;5092312;28;19908;-70
2022/05/22 11:09:21;;;;;;;;;;;;;;;;;;5065523;28;19913;-70
2022/05/22 11:12:07;;;;;;;;;;;;;;;;;;5079385;28;19912;-64
2022/05/22 11:14:52;;;;;;;;;;;;;;;;;;5091367;28;19969;-63
2022/05/22 11:17:38;;;;;;;;;;;;;;;;;;5093057;28;19908;-63
2022/05/22 11:20:23;;;;;;;;;;;;;;;;;;5091423;28;19912;-63
2022/05/22 11:23:08;;;;;;;;;;;;;;;;;;5091834;28;19930;-63
2022/05/22 11:25:54;;;;;;;;;;;;;;;;;;5080871;28;20313;-62
2022/05/22 11:28:39;;;;;;;;;;;;;;;;;;5091837;28;19926;-67
2022/05/22 11:31:25;;;;;;;;;;;;;;;;;;5091507;28;19916;-63
2022/05/22 11:34:11;;;;;;;;;;;;;;;;;;5086082;28;20122;-63
2022/05/22 11:36:56;;;;;;;;;;;;;;;;;;5091066;28;19912;-63
2022/05/22 11:39:42;;;;;;;;;;;;;;;;;;5092891;28;20392;-63
2022/05/22 11:42:27;;;;;;;;;;;;;;;;;;5092431;28;19908;-62
2022/05/22 11:45:13;;;;;;;;;;;;;;;;;;5089859;28;19923;-61
2022/05/22 11:47:58;;;;;;;;;;;;;;;;;;5078345;28;19959;-65
2022/05/22 11:50:44;;;;;;;;;;;;;;;;;;5092060;28;19915;-75
2022/05/22 11:53:30;;;;;;;;;;;;;;;;;;5091218;28;19916;-74
2022/05/22 11:56:15;;;;;;;;;;;;;;;;;;5091101;28;19916;-75
2022/05/22 11:59:01;;;;;;;;;;;;;;;;;;5092277;28;19912;-75
2022/05/22 12:01:46;;;;;;;;;;;;;;;;;;5077893;28;19908;-75
2022/05/22 12:04:32;;;;;;;;;;;;;;;;;;5091918;28;19915;-63
2022/05/22 12:07:17;;;;;;;;;;;;;;;;;;5082203;28;19920;-70
2022/05/22 12:10:03;;;;;;;;;;;;;;;;;;5089577;28;20058;-70
2022/05/22 12:12:48;;;;;;;;;;;;;;;;;;5087943;28;19915;-70
2022/05/22 12:15:34;;;;;;;;;;;;;;;;;;5090073;28;19923;-70
2022/05/22 12:18:19;;;;;;;;;;;;;;;;;;5088311;28;19919;-71
2022/05/22 12:21:04;;;;;;;;;;;;;;;;;;5091345;28;19908;-71
2022/05/22 12:23:50;;;;;;;;;;;;;;;;;;5091901;28;20023;-71
2022/05/22 12:26:35;;;;;;;;;;;;;;;;;;5087283;28;19912;-66
2022/05/22 12:29:25;;;;;;;;;;;;;;;;;;5092215;28;19916;-64
2022/05/22 12:32:10;;;;;;;;;;;;;;;;;;5092141;28;19919;-65
2022/05/22 12:34:56;;;;;;;;;;;;;;;;;;5092410;28;20019;-67
2022/05/22 12:37:41;;;;;;;;;;;;;;;;;;5083387;28;19913;-67
2022/05/22 12:40:27;;;;;;;;;;;;;;;;;;5104877;28;19912;-67
2022/05/22 12:43:13;;;;;;;;;;;;;;;;;;5095991;28;19908;-68
2022/05/22 12:45:58;;;;;;;;;;;;;;;;;;5094525;28;19962;-72
2022/05/22 12:48:44;;;;;;;;;;;;;;;;;;5096101;28;19926;-73
2022/05/22 12:51:30;;;;;;;;;;;;;;;;;;5095350;28;20248;-73
2022/05/22 12:54:16;;;;;;;;;;;;;;;;;;5107158;28;20402;-74
2022/05/22 12:57:01;;;;;;;;;;;;;;;;;;5088430;28;20401;-73
2022/05/22 12:59:47;;;;;;;;;;;;;;;;;;5077988;28;19936;-66
2022/05/22 13:02:32;;;;;;;;;;;;;;;;;;5087865;28;19910;-74
2022/05/22 13:05:18;;;;;;;;;;;;;;;;;;5095862;28;19908;-72
2022/05/22 13:08:03;;;;;;;;;;;;;;;;;;5090798;28;19935;-75
2022/05/22 13:10:49;;;;;;;;;;;;;;;;;;5094769;28;19908;-75
2022/05/22 13:13:34;;;;;;;;;;;;;;;;;;5094692;28;20273;-74
2022/05/22 13:16:20;;;;;;;;;;;;;;;;;;5094573;28;19922;-74
2022/05/22 13:19:07;;;;;;;;;;;;;;;;;;5084794;28;19912;-74
2022/05/22 13:21:52;;;;;;;;;;;;;;;;;;5094830;28;19994;-66
2022/05/22 13:24:38;;;;;;;;;;;;;;;;;;5094415;28;19970;-67
2022/05/22 13:27:24;;;;;;;;;;;;;;;;;;5094920;28;19908;-67
2022/05/22 13:30:09;;;;;;;;;;;;;;;;;;5094023;28;20287;-67
2022/05/22 13:32:55;;;;;;;;;;;;;;;;;;5095371;28;19909;-66
2022/05/22 13:35:40;;;;;;;;;;;;;;;;;;5092295;28;19959;-67
2022/05/22 13:38:26;;;;;;;;;;;;;;;;;;5094442;28;20004;-64
2022/05/22 13:41:11;;;;;;;;;;;;;;;;;;5082649;28;19919;-61
2022/05/22 13:43:57;;;;;;;;;;;;;;;;;;5094967;28;19962;-61
2022/05/22 13:46:42;;;;;;;;;;;;;;;;;;5093669;28;19912;-62
2022/05/22 13:49:27;;;;;;;;;;;;;;;;;;5092307;28;19961;-60
2022/05/22 13:55:17;;;;;;;;;;;;;;;;;;5090933;28;20272;-64
2022/05/22 13:58:02;;;;;;;;;;;;;;;;;;5094144;28;19996;-74
2022/05/22 14:00:48;;;;;;;;;;;;;;;;;;5094192;28;19908;-73
2022/05/22 14:03:33;;;;;;;;;;;;;;;;;;5080787;28;19915;-73
2022/05/22 14:06:19;;;;;;;;;;;;;;;;;;5091123;28;19912;-73
2022/05/22 14:09:05;;;;;;;;;;;;;;;;;;5084230;28;19908;-72
2022/05/22 14:11:51;;;;;;;;;;;;;;;;;;5079745;28;19908;-72
2022/05/22 14:14:36;;;;;;;;;;;;;;;;;;5078860;28;19946;-74
2022/05/22 14:17:23;;;;;;;;;;;;;;;;;;5080336;28;19927;-65
2022/05/22 14:20:08;;;;;;;;;;;;;;;;;;5087818;28;19909;-65
2022/05/22 14:22:54;;;;;;;;;;;;;;;;;;5085374;28;20393;-66
2022/05/22 14:25:41;;;;;;;;;;;;;;;;;;5091784;28;19919;-65
2022/05/22 14:28:26;;;;;;;;;;;;;;;;;;5092062;28;19912;-65
2022/05/22 14:31:12;;;;;;;;;;;;;;;;;;5069177;28;20384;-62
2022/05/22 14:33:57;;;;;;;;;;;;;;;;;;5076459;28;19923;-73
2022/05/22 14:36:43;;;;;;;;;;;;;;;;;;5078109;28;19919;-66
2022/05/22 14:39:28;;;;;;;;;;;;;;;;;;5081252;28;20419;-68
2022/05/22 14:42:14;;;;;;;;;;;;;;;;;;5079604;28;19963;-68
2022/05/22 14:44:59;;;;;;;;;;;;;;;;;;5093366;28;20283;-68
2022/05/22 14:47:46;;;;;;;;;;;;;;;;;;5080375;28;19919;-68
2022/05/22 14:50:31;;;;;;;;;;;;;;;;;;5093086;28;19916;-72
2022/05/22 14:53:17;;;;;;;;;;;;;;;;;;5078642;28;19908;-67
2022/05/22 14:56:03;;;;;;;;;;;;;;;;;;5093485;28;19997;-67
2022/05/22 14:58:48;;;;;;;;;;;;;;;;;;5078198;28;19912;-67
2022/05/22 15:01:34;;;;;;;;;;;;;;;;;;5091259;28;19909;-64
2022/05/22 15:04:21;;;;;;;;;;;;;;;;;;5091802;28;20382;-65
2022/05/22 15:07:06;;;;;;;;;;;;;;;;;;5081453;28;19915;-65
2022/05/22 15:09:52;;;;;;;;;;;;;;;;;;5093003;28;20374;-65
2022/05/22 15:12:38;;;;;;;;;;;;;;;;;;5089713;28;20256;-73
2022/05/22 15:15:23;;;;;;;;;;;;;;;;;;5091696;28;20290;-73
2022/05/22 15:18:09;;;;;;;;;;;;;;;;;;5091696;28;19944;-72
2022/05/22 15:20:54;;;;;;;;;;;;;;;;;;5090815;28;19912;-73
2022/05/22 15:26:52;;;;;;;;;;;;;;;;;;5073264;28;19935;-73
2022/05/22 15:29:39;;;;;;;;;;;;;;;;;;5087893;28;19918;-73
2022/05/22 15:32:24;;;;;;;;;;;;;;;;;;5071155;28;20350;-73
2022/05/22 15:35:11;;;;;;;;;;;;;;;;;;5086406;28;20432;-74
2022/05/22 15:37:56;;;;;;;;;;;;;;;;;;5092021;28;19919;-73
2022/05/22 15:40:42;;;;;;;;;;;;;;;;;;5091715;28;19908;-73
2022/05/22 15:43:28;;;;;;;;;;;;;;;;;;5092685;28;19908;-74
2022/05/22 15:46:13;;;;;;;;;;;;;;;;;;5092927;28;20000;-70
2022/05/22 15:52:20;;;;;;;;;;;;;;;;;;5030592;28;19931;-68
2022/05/22 15:55:05;;;;;;;;;;;;;;;;;;5071232;28;19917;-69
2022/05/22 15:57:50;;;;;;;;;;;;;;;;;;5066987;28;20036;-69
2022/05/22 16:00:36;;;;;;;;;;;;;;;;;;5057122;28;19999;-69
2022/05/22 16:03:21;;;;;;;;;;;;;;;;;;5056513;28;19909;-69
2022/05/22 16:06:07;;;;;;;;;;;;;;;;;;5067133;28;19915;-72
2022/05/22 16:08:52;;;;;;;;;;;;;;;;;;5037004;28;19963;-74
2022/05/22 16:11:38;;;;;;;;;;;;;;;;;;5068472;28;19912;-74
2022/05/22 16:14:23;;;;;;;;;;;;;;;;;;5053356;28;19994;-73
2022/05/22 16:17:09;;;;;;;;;;;;;;;;;;5064173;28;19913;-73
2022/05/22 16:19:54;;;;;;;;;;;;;;;;;;5074327;28;20395;-73
2022/05/22 16:22:40;;;;;;;;;;;;;;;;;;5075718;28;19909;-69
2022/05/22 16:25:25;;;;;;;;;;;;;;;;;;5060747;28;20356;-69
2022/05/22 16:28:11;;;;;;;;;;;;;;;;;;5074340;28;19970;-67
2022/05/22 16:30:56;;;;;;;;;;;;;;;;;;5049418;28;19908;-69
2022/05/22 16:33:42;;;;;;;;;;;;;;;;;;5056913;28;20360;-68
2022/05/22 16:36:27;;;;;;;;;;;;;;;;;;5055376;28;19920;-68
2022/05/22 16:39:13;;;;;;;;;;;;;;;;;;5041480;28;19912;-69
2022/05/22 16:41:58;;;;;;;;;;;;;;;;;;5042736;28;20348;-69
2022/05/22 16:44:44;;;;;;;;;;;;;;;;;;5054260;28;19916;-69
2022/05/22 16:53:38;;;;;;;;;;;;;;;;;;5055568;28;20294;-69
2022/05/22 16:56:23;;;;;;;;;;;;;;;;;;5053419;28;20354;-69
2022/05/22 16:59:09;;;;;;;;;;;;;;;;;;5040490;28;19912;-69
2022/05/22 17:01:54;;;;;;;;;;;;;;;;;;5042004;28;19915;-69
2022/05/22 17:04:40;;;;;;;;;;;;;;;;;;5040008;28;20345;-69
2022/05/22 17:07:27;;;;;;;;;;;;;;;;;;5054750;28;19954;-69
2022/05/22 17:10:13;;;;;;;;;;;;;;;;;;5052658;28;19917;-67
2022/05/22 17:12:58;;;;;;;;;;;;;;;;;;5068996;28;19909;-68
2022/05/22 17:15:44;;;;;;;;;;;;;;;;;;5039456;28;20291;-69
2022/05/22 17:18:29;;;;;;;;;;;;;;;;;;5052114;28;19913;-70
2022/05/22 17:21:15;;;;;;;;;;;;;;;;;;5054755;28;19916;-70
2022/05/22 17:24:00;;;;;;;;;;;;;;;;;;5040247;28;19944;-69
2022/05/22 17:26:46;;;;;;;;;;;;;;;;;;5052906;28;19909;-69
2022/05/22 17:29:31;;;;;;;;;;;;;;;;;;5054171;28;19913;-69
2022/05/22 17:32:17;;;;;;;;;;;;;;;;;;5073115;28;19982;-69
2022/05/22 17:35:03;;;;;;;;;;;;;;;;;;5058998;28;19921;-68
2022/05/22 17:37:48;;;;;;;;;;;;;;;;;;5042713;28;20372;-69
2022/05/22 17:40:34;;;;;;;;;;;;;;;;;;5039971;28;20375;-73
2022/05/22 17:43:19;;;;;;;;;;;;;;;;;;5054981;28;19908;-71
2022/05/22 17:46:05;;;;;;;;;;;;;;;;;;5043392;28;19908;-72
2022/05/22 17:48:50;;;;;;;;;;;;;;;;;;5053976;28;20003;-72
2022/05/22 17:51:36;;;;;;;;;;;;;;;;;;5054225;28;20674;-71
2022/05/22 17:54:22;;;;;;;;;;;;;;;;;;5041041;28;20039;-75
2022/05/22 17:57:08;;;;;;;;;;;;;;;;;;5029942;28;19917;-73
2022/05/22 17:59:53;;;;;;;;;;;;;;;;;;5033643;28;19913;-73
2022/05/22 18:02:39;;;;;;;;;;;;;;;;;;5045724;28;20335;-72
2022/05/22 18:05:25;;;;;;;;;;;;;;;;;;5019730;28;19917;-74
2022/05/22 18:08:10;;;;;;;;;;;;;;;;;;5035056;28;19912;-73
2022/05/22 18:17:04;;;;;;;;;;;;;;;;;;5053069;28;19909;-74
2022/05/22 18:19:49;;;;;;;;;;;;;;;;;;5052885;28;19916;-73
2022/05/22 18:22:35;;;;;;;;;;;;;;;;;;5052211;28;20398;-73
2022/05/22 18:25:30;;;;;;;;;;;;;;;;;;5052703;28;19915;-75
2022/05/22 18:28:19;;;;;;;;;;;;;;;;;;5052903;28;19944;-76
2022/05/22 18:31:04;;;;;;;;;;;;;;;;;;5042493;28;20360;-68
2022/05/22 18:33:50;;;;;;;;;;;;;;;;;;5051467;28;20020;-74
2022/05/22 18:36:38;;;;;;;;;;;;;;;;;;5053209;28;19931;-74
2022/05/22 18:39:24;;;;;;;;;;;;;;;;;;5038953;28;19912;-74
2022/05/22 18:42:09;;;;;;;;;;;;;;;;;;5039491;28;20448;-73
2022/05/22 18:44:55;;;;;;;;;;;;;;;;;;5048297;28;20035;-75
2022/05/22 18:47:40;;;;;;;;;;;;;;;;;;5054105;28;19915;-74
2022/05/22 18:50:26;;;;;;;;;;;;;;;;;;5052135;28;20386;-68
2022/05/22 18:53:12;;;;;;;;;;;;;;;;;;5039317;28;20348;-70
2022/05/22 18:55:57;;;;;;;;;;;;;;;;;;5052155;28;20330;-69
2022/05/22 18:58:42;;;;;;;;;;;;;;;;;;5034450;28;20013;-69
2022/05/22 19:01:28;;;;;;;;;;;;;;;;;;5051622;28;19958;-69
2022/05/22 19:04:13;;;;;;;;;;;;;;;;;;5045394;28;19963;-70
2022/05/22 19:06:59;;;;;;;;;;;;;;;;;;5052186;28;19909;-69
2022/05/22 19:09:44;;;;;;;;;;;;;;;;;;5042023;28;19920;-70
2022/05/22 19:12:30;;;;;;;;;;;;;;;;;;5058787;28;20279;-70
2022/05/22 19:15:15;;;;;;;;;;;;;;;;;;5065382;28;20224;-71
2022/05/22 19:18:01;;;;;;;;;;;;;;;;;;5053096;28;19908;-71
2022/05/22 19:20:46;;;;;;;;;;;;;;;;;;5051065;28;19913;-71
2022/05/22 19:23:32;;;;;;;;;;;;;;;;;;5040782;28;19912;-70
2022/05/22 19:26:17;;;;;;;;;;;;;;;;;;5045307;28;19909;-74
2022/05/22 19:29:03;;;;;;;;;;;;;;;;;;5036965;28;20384;-69
2022/05/22 19:31:48;;;;;;;;;;;;;;;;;;5038521;28;19910;-68